Main page
METAR-TAF:

METAR-TAF

Airports :

Piešťany Airport

Piešťany, Slovakia

latitude: 48-37-30N, longitude: 017-49-43E, elevation: 163 m

Current weather observation

The report was made 44 minutes ago, at 13:30 UTC
Wind 13 kt from the Southeast
Temperature 7°C
Humidity 49%
Pressure 1009 hPa
Visibility 10 km or more
no clouds below 1500 m and no cumulonimbus

METAR: LZPP 291330Z 14013KT CAVOK 07/M03 Q1009

Time: 15:14 (14:14 UTC)

Forecast

The report was made 3 hours and 14 minutes ago, at 11:00 UTC
Forecast valid from 29 at 12 UTC to 29 at 21 UTC
Wind 15 kt from the South/Southeast
Visibility 10 km or more
no clouds below 1500 m and no cumulonimbus
Temporary
from 29 at 12 UTC to 29 at 16 UTC
Visibility 10 km or more
Broken clouds at a height of 4000 ft
light rain
Temporary
from 29 at 12 UTC to 29 at 21 UTC
Wind 15 kt from the South/Southeast with gusts up to 30 kt

TAF: LZPP 291100Z 2912/2921 15015KT CAVOK TEMPO 2912/2916 9999 -RA BKN040 TEMPO 2912/2921 15015G30KT

Weather observations and forecasts of more than 4000 airports (METAR and TAF reports).

The available stations are represented by yellow and red dots on the map.

Hover mouse over dot to see the name of the station.

Then click to see weather observations and forecasts.

To change the map : click on the green buttons with a black cross to zoom in, on the green button with a dash to zoom out, or on the green arrows for adjacent maps.


METAR-TAF: